createdAt,value
2022-12-01T00:01:39.544Z,5.10
2022-12-01T00:04:08.142Z,4.80
2022-12-01T00:06:36.713Z,5.50
2022-12-01T00:09:23.043Z,6.05
2022-12-01T00:11:53.166Z,5.03
2022-12-01T00:14:21.880Z,5.28
2022-12-01T00:16:50.622Z,4.68
2022-12-01T00:19:19.306Z,4.72
2022-12-01T00:21:48.311Z,5.03
2022-12-01T00:24:16.913Z,4.88
2022-12-01T00:26:45.467Z,4.70
2022-12-01T00:29:15.573Z,4.53
2022-12-01T00:31:44.374Z,4.78
2022-12-01T00:34:20.855Z,5.28
2022-12-01T00:36:49.428Z,5.57
2022-12-01T00:39:18.054Z,5.65
2022-12-01T00:41:46.619Z,5.63
2022-12-01T00:44:16.691Z,5.60
2022-12-01T00:46:45.287Z,6.45
2022-12-01T00:49:14.832Z,6.45
2022-12-01T00:51:43.844Z,5.80
2022-12-01T00:54:12.483Z,6.05
2022-12-01T00:56:41.040Z,6.38
2022-12-01T00:59:09.596Z,6.43
2022-12-01T01:01:40.273Z,5.93
2022-12-01T01:04:09.192Z,6.05
2022-12-01T01:06:37.767Z,5.47
2022-12-01T01:09:06.471Z,5.93
2022-12-01T01:11:35.111Z,5.93
2022-12-01T01:14:03.678Z,6.30
2022-12-01T01:16:32.398Z,5.70
2022-12-01T01:19:02.743Z,5.50
2022-12-01T01:21:31.406Z,5.85
2022-12-01T01:24:00.015Z,5.55
2022-12-01T01:26:30.377Z,5.28
2022-12-01T01:28:59.564Z,5.15
2022-12-01T01:31:28.808Z,5.65
2022-12-01T01:33:58.011Z,5.40
2022-12-01T01:36:28.495Z,4.50
2022-12-01T01:38:57.271Z,4.70
2022-12-01T01:41:26.187Z,3.75
2022-12-01T01:43:56.052Z,4.90
2022-12-01T01:46:27.009Z,4.50
2022-12-01T01:48:56.992Z,4.30
2022-12-01T01:51:29.038Z,4.13
2022-12-01T01:54:02.857Z,4.75
2022-12-01T01:56:31.666Z,4.57
2022-12-01T01:59:00.912Z,4.22
2022-12-01T02:01:29.612Z,4.80
2022-12-01T02:03:58.263Z,4.80
2022-12-01T02:06:26.831Z,4.75
2022-12-01T02:08:55.400Z,5.03
2022-12-01T02:11:49.467Z,4.32
2022-12-01T02:14:27.759Z,4.40
2022-12-01T02:17:03.676Z,4.55
2022-12-01T02:19:45.188Z,4.15
2022-12-01T02:22:19.177Z,4.63
2022-12-01T02:24:58.911Z,4.15
2022-12-01T02:27:32.435Z,4.50
2022-12-01T02:30:08.628Z,4.57
2022-12-01T02:32:45.212Z,4.28
2022-12-01T02:35:16.603Z,4.65
2022-12-01T02:37:48.033Z,4.47
2022-12-01T02:40:20.553Z,4.10
2022-12-01T02:42:52.416Z,4.50
2022-12-01T02:45:24.395Z,4.22
2022-12-01T02:47:56.200Z,4.20
2022-12-01T02:50:25.827Z,4.35
2022-12-01T02:52:55.400Z,3.67
2022-12-01T02:55:24.020Z,3.67
2022-12-01T02:57:52.668Z,3.65
2022-12-01T03:00:21.568Z,3.70
2022-12-01T03:03:00.759Z,3.67
2022-12-01T03:05:34.514Z,3.80
2022-12-01T03:08:05.742Z,4.03
2022-12-01T03:10:39.684Z,3.72
2022-12-01T03:13:11.921Z,3.60
2022-12-01T03:15:45.264Z,3.60
2022-12-01T03:18:18.951Z,3.70
2022-12-01T03:20:49.943Z,3.50
2022-12-01T03:23:20.504Z,3.53
2022-12-01T03:25:50.608Z,3.70
2022-12-01T03:28:22.673Z,3.55
2022-12-01T03:30:53.999Z,3.40
2022-12-01T03:33:26.903Z,3.75
2022-12-01T03:35:57.935Z,3.90
2022-12-01T03:38:27.755Z,3.55
2022-12-01T03:40:58.336Z,3.70
2022-12-01T03:43:29.682Z,3.58
2022-12-01T03:46:01.413Z,3.90
2022-12-01T03:48:32.503Z,4.10
2022-12-01T03:51:06.710Z,3.90
2022-12-01T03:53:37.287Z,3.70
2022-12-01T03:56:08.299Z,3.70
2022-12-01T03:58:39.282Z,3.70
2022-12-01T04:01:09.576Z,3.88
2022-12-01T04:03:39.699Z,3.90
2022-12-01T04:06:08.531Z,3.95
2022-12-01T04:08:37.652Z,3.63
2022-12-01T04:11:32.282Z,3.28
2022-12-01T04:14:00.203Z,3.88
2022-12-01T04:16:29.007Z,3.17
2022-12-01T04:18:59.048Z,3.78
2022-12-01T04:21:27.587Z,3.45
2022-12-01T04:24:02.305Z,3.03
2022-12-01T04:26:32.291Z,3.20
2022-12-01T04:29:00.996Z,3.50
2022-12-01T04:31:29.741Z,3.28
2022-12-01T04:34:00.515Z,3.13
2022-12-01T04:36:29.615Z,3.28
2022-12-01T04:38:58.288Z,3.58
2022-12-01T04:41:26.987Z,3.67
2022-12-01T04:43:55.560Z,3.58
2022-12-01T04:46:24.403Z,3.22
2022-12-01T04:48:53.359Z,3.63
2022-12-01T04:51:23.340Z,3.53
2022-12-01T04:53:52.139Z,3.45
2022-12-01T04:56:21.068Z,3.58
2022-12-01T04:58:49.879Z,3.78
2022-12-01T05:01:19.711Z,4.00
2022-12-01T05:03:50.511Z,3.63
2022-12-01T05:06:19.961Z,3.75
2022-12-01T05:08:50.323Z,3.83
2022-12-01T05:11:19.240Z,3.65
2022-12-01T05:13:49.102Z,3.85
2022-12-01T05:16:19.342Z,3.72
2022-12-01T05:18:50.508Z,4.05
2022-12-01T05:21:18.740Z,3.50
2022-12-01T05:23:47.462Z,3.70
2022-12-01T05:26:17.392Z,3.70
2022-12-01T05:28:46.064Z,3.20
2022-12-01T05:31:14.764Z,3.45
2022-12-01T05:33:43.414Z,3.15
2022-12-01T05:36:12.100Z,3.72
2022-12-01T05:38:40.694Z,3.85
2022-12-01T05:41:09.383Z,3.75
2022-12-01T05:43:39.443Z,3.50
2022-12-01T05:46:08.172Z,3.47
2022-12-01T05:48:36.748Z,4.47
2022-12-01T05:51:10.162Z,5.28
2022-12-01T05:53:38.768Z,6.13
2022-12-01T05:56:08.033Z,6.80
2022-12-01T05:58:36.959Z,8.32
2022-12-01T06:01:07.076Z,6.32
2022-12-01T06:03:35.753Z,5.00
2022-12-01T06:06:04.500Z,4.57
2022-12-01T06:08:33.375Z,4.85
2022-12-01T06:11:02.028Z,4.80
2022-12-01T06:13:30.698Z,4.80
2022-12-01T06:16:00.427Z,3.88
2022-12-01T06:18:32.153Z,4.97
2022-12-01T06:21:00.879Z,4.70
2022-12-01T06:23:30.692Z,4.70
2022-12-01T06:25:59.570Z,4.38
2022-12-01T06:28:28.202Z,4.65
2022-12-01T06:31:03.510Z,4.30
2022-12-01T06:33:34.121Z,4.57
2022-12-01T06:36:03.242Z,4.05
2022-12-01T06:38:32.509Z,4.45
2022-12-01T06:41:01.120Z,4.18
2022-12-01T06:43:29.850Z,4.55
2022-12-01T06:46:02.085Z,5.13
2022-12-01T06:48:33.069Z,5.20
2022-12-01T06:51:03.910Z,4.85
2022-12-01T06:53:32.540Z,5.88
2022-12-01T06:56:02.010Z,6.88
2022-12-01T06:58:31.054Z,5.07
2022-12-01T07:01:00.100Z,4.07
2022-12-01T07:03:29.063Z,4.75
2022-12-01T07:05:58.661Z,4.50
2022-12-01T07:08:29.175Z,4.65
2022-12-01T07:11:01.536Z,6.65
2022-12-01T07:13:33.782Z,5.95
2022-12-01T07:16:03.345Z,4.55
2022-12-01T07:18:32.525Z,4.57
2022-12-01T07:21:02.239Z,4.88
2022-12-01T07:23:32.532Z,5.00
2022-12-01T07:26:01.689Z,3.97
2022-12-01T07:28:30.623Z,4.00
2022-12-01T07:31:03.461Z,3.97
2022-12-01T07:33:32.170Z,3.30
2022-12-01T07:36:00.987Z,3.40
2022-12-01T07:38:30.526Z,4.05
2022-12-01T07:41:04.847Z,3.88
2022-12-01T07:43:34.026Z,4.00
2022-12-01T07:46:09.767Z,3.80
2022-12-01T07:48:38.810Z,4.30
2022-12-01T07:51:07.927Z,3.95
2022-12-01T07:53:36.776Z,3.70
2022-12-01T07:56:08.934Z,3.70
2022-12-01T07:58:37.869Z,3.90
2022-12-01T08:01:10.110Z,3.88
2022-12-01T08:03:38.835Z,3.97
2022-12-01T08:06:08.162Z,4.10
2022-12-01T08:08:37.837Z,4.50
2022-12-01T08:11:08.910Z,4.13
2022-12-01T08:13:37.619Z,4.38
2022-12-01T08:16:06.475Z,4.35
2022-12-01T08:18:35.830Z,3.83
2022-12-01T08:21:04.683Z,4.28
2022-12-01T08:23:33.242Z,3.88
2022-12-01T08:26:02.890Z,3.92
2022-12-01T08:28:34.269Z,4.35
2022-12-01T08:31:09.359Z,4.10
2022-12-01T08:33:37.994Z,5.10
2022-12-01T08:36:07.417Z,4.18
2022-12-01T08:38:36.034Z,4.20
2022-12-01T08:41:05.412Z,4.60
2022-12-01T08:46:29.055Z,4.70
2022-12-01T08:48:58.175Z,4.85
2022-12-01T08:51:27.548Z,4.60
2022-12-01T08:53:57.131Z,5.45
2022-12-01T08:56:27.357Z,5.10
2022-12-01T08:58:58.027Z,5.25
2022-12-01T09:01:26.865Z,4.68
2022-12-01T09:04:07.673Z,4.43
2022-12-01T09:06:37.202Z,4.38
2022-12-01T09:09:06.010Z,4.57
2022-12-01T09:11:34.636Z,4.78
2022-12-01T09:14:04.604Z,4.55
2022-12-01T09:16:33.429Z,4.95
2022-12-01T09:19:02.176Z,4.65
2022-12-01T09:21:31.947Z,4.90
2022-12-01T09:24:00.905Z,4.38
2022-12-01T09:26:29.951Z,3.30
2022-12-01T09:28:59.554Z,3.58
2022-12-01T09:31:29.757Z,4.10
2022-12-01T09:33:59.213Z,3.92
2022-12-01T09:36:28.158Z,3.15
2022-12-01T09:38:56.858Z,4.00
2022-12-01T09:41:26.754Z,3.75
2022-12-01T09:43:58.374Z,4.22
2022-12-01T09:46:29.393Z,3.83
2022-12-01T09:49:00.975Z,3.95
2022-12-01T09:51:31.175Z,4.30
2022-12-01T09:54:00.611Z,3.60
2022-12-01T09:56:30.094Z,4.20
2022-12-01T09:59:00.535Z,4.10
2022-12-01T10:01:33.073Z,3.67
2022-12-01T10:04:07.399Z,3.60
2022-12-01T10:06:38.504Z,4.20
2022-12-01T10:09:14.903Z,3.78
2022-12-01T10:11:44.638Z,3.90
2022-12-01T10:14:19.648Z,3.72
2022-12-01T10:16:54.942Z,4.07
2022-12-01T10:19:28.104Z,3.65
2022-12-01T10:22:05.504Z,3.65
2022-12-01T10:24:40.568Z,3.90
2022-12-01T10:27:15.242Z,3.88
2022-12-01T10:29:48.735Z,4.05
2022-12-01T10:32:19.699Z,3.80
2022-12-01T10:34:49.783Z,3.88
2022-12-01T10:37:20.512Z,3.90
2022-12-01T10:39:50.920Z,3.72
2022-12-01T10:42:21.837Z,4.00
2022-12-01T10:44:51.083Z,4.68
2022-12-01T10:47:21.454Z,3.92
2022-12-01T10:49:51.699Z,4.55
2022-12-01T10:52:33.125Z,3.78
2022-12-01T10:55:02.230Z,3.65
2022-12-01T10:57:32.296Z,4.20
2022-12-01T11:00:02.987Z,3.97
2022-12-01T11:02:33.319Z,3.70
2022-12-01T11:05:04.343Z,4.32
2022-12-01T11:07:35.104Z,4.47
2022-12-01T11:10:15.403Z,3.80
2022-12-01T11:12:44.374Z,3.65
2022-12-01T11:15:20.499Z,3.58
2022-12-01T11:17:49.514Z,3.45
2022-12-01T11:20:31.162Z,3.30
2022-12-01T11:23:29.885Z,3.65
2022-12-01T11:26:04.170Z,3.60
2022-12-01T11:28:33.951Z,3.50
2022-12-01T11:31:03.754Z,4.10
2022-12-01T11:33:36.022Z,3.80
2022-12-01T11:36:06.186Z,4.32
2022-12-01T11:38:35.663Z,4.20
2022-12-01T11:41:04.304Z,4.50
2022-12-01T11:43:34.387Z,4.00
2022-12-01T11:46:07.472Z,4.53
2022-12-01T11:48:36.808Z,4.93
2022-12-01T11:51:09.793Z,3.85
2022-12-01T11:53:39.418Z,3.70
2022-12-01T11:56:16.337Z,4.40
2022-12-01T11:58:45.406Z,3.58
2022-12-01T12:01:22.006Z,4.00
2022-12-01T12:03:58.126Z,4.00
2022-12-01T12:06:42.683Z,4.22
2022-12-01T12:09:25.739Z,3.85
2022-12-01T12:12:02.961Z,4.13
2022-12-01T12:14:38.334Z,4.10
2022-12-01T12:17:27.833Z,4.10
2022-12-01T12:20:23.394Z,3.95
2022-12-01T12:22:57.963Z,3.50
2022-12-01T12:25:29.812Z,4.20
2022-12-01T12:28:07.219Z,3.25
2022-12-01T12:30:40.940Z,3.00
2022-12-01T12:33:30.614Z,3.13
2022-12-01T12:36:06.396Z,2.83
2022-12-01T12:38:44.149Z,3.20
2022-12-01T12:41:18.324Z,3.22
2022-12-01T12:43:52.008Z,3.20
2022-12-01T12:46:23.727Z,3.05
2022-12-01T12:51:51.294Z,3.47
2022-12-01T12:54:26.296Z,3.22
2022-12-01T12:56:57.391Z,3.13
2022-12-01T12:59:28.445Z,4.05
2022-12-01T13:01:59.270Z,4.47
2022-12-01T13:04:33.013Z,4.00
2022-12-01T13:07:04.208Z,3.70
2022-12-01T13:09:37.152Z,3.83
2022-12-01T13:12:08.296Z,3.60
2022-12-01T13:14:39.070Z,3.42
2022-12-01T13:17:09.933Z,3.60
2022-12-01T13:19:41.638Z,3.78
2022-12-01T13:22:12.454Z,3.80
2022-12-01T13:24:42.551Z,3.40
2022-12-01T13:27:16.004Z,3.95
2022-12-01T13:29:47.451Z,3.63
2022-12-01T13:32:29.446Z,3.60
2022-12-01T13:34:58.573Z,4.18
2022-12-01T13:37:28.221Z,3.90
2022-12-01T13:40:08.699Z,4.30
2022-12-01T13:42:37.571Z,4.55
2022-12-01T13:45:09.998Z,4.60
2022-12-01T13:47:49.767Z,4.10
2022-12-01T13:50:36.115Z,3.67
2022-12-01T13:53:14.854Z,4.22
2022-12-01T13:55:58.564Z,4.40
2022-12-01T13:58:43.683Z,3.75
2022-12-01T14:01:31.606Z,3.63
2022-12-01T14:04:01.294Z,3.70
2022-12-01T14:06:30.703Z,3.72
2022-12-01T14:09:00.866Z,3.70
2022-12-01T14:11:30.440Z,3.42
2022-12-01T14:14:02.475Z,4.25
2022-12-01T14:16:45.957Z,3.60
2022-12-01T14:19:28.264Z,3.63
2022-12-01T14:21:57.684Z,3.47
2022-12-01T14:24:28.541Z,3.40
2022-12-01T14:26:57.478Z,3.63
2022-12-01T14:29:35.168Z,3.50
2022-12-01T14:32:24.825Z,4.35
2022-12-01T14:34:54.867Z,3.50
2022-12-01T14:37:24.872Z,3.42
2022-12-01T14:39:57.493Z,4.05
2022-12-01T14:42:47.632Z,3.85
2022-12-01T14:45:24.096Z,3.08
2022-12-01T14:47:54.456Z,3.75
2022-12-01T14:50:25.308Z,3.78
2022-12-01T14:52:55.555Z,3.33
2022-12-01T14:55:25.725Z,3.53
2022-12-01T14:58:01.845Z,3.25
2022-12-01T15:00:32.286Z,3.45
2022-12-01T15:03:02.151Z,3.80
2022-12-01T15:05:31.427Z,3.75
2022-12-01T15:08:33.187Z,3.38
2022-12-01T15:10:53.927Z,3.60
2022-12-01T15:13:24.037Z,3.60
2022-12-01T15:15:55.023Z,3.75
2022-12-01T15:18:25.135Z,3.28
2022-12-01T15:20:58.887Z,3.70
2022-12-01T15:23:27.443Z,4.00
2022-12-01T15:25:56.975Z,3.85
2022-12-01T15:28:31.816Z,3.97
2022-12-01T15:31:02.743Z,6.03
2022-12-01T15:33:36.791Z,8.80
2022-12-01T15:36:05.939Z,5.10
2022-12-01T15:38:35.481Z,5.35
2022-12-01T15:43:57.920Z,5.65
2022-12-01T15:46:32.071Z,4.72
2022-12-01T15:49:11.001Z,4.95
2022-12-01T15:51:39.682Z,5.57
2022-12-01T15:54:08.650Z,6.60
2022-12-01T15:56:38.235Z,9.00
2022-12-01T15:59:09.861Z,9.30
2022-12-01T16:01:41.196Z,12.00
2022-12-01T16:04:19.270Z,14.32
2022-12-01T16:06:55.355Z,11.63
2022-12-01T16:09:27.434Z,10.20
2022-12-01T16:12:20.102Z,10.10
2022-12-01T16:14:53.053Z,9.82
2022-12-01T16:17:23.692Z,10.93
2022-12-01T16:20:07.155Z,10.20
2022-12-01T16:22:35.972Z,8.75
2022-12-01T16:25:04.956Z,8.65
2022-12-01T16:27:33.807Z,7.35
2022-12-01T16:30:03.472Z,6.70
2022-12-01T16:32:35.115Z,7.05
2022-12-01T16:35:04.509Z,6.50
2022-12-01T16:37:33.219Z,5.45
2022-12-01T16:40:01.867Z,6.18
2022-12-01T16:42:30.493Z,5.55
2022-12-01T16:44:59.102Z,5.80
2022-12-01T16:47:27.712Z,5.50
2022-12-01T16:49:57.740Z,5.20
2022-12-01T16:55:27.672Z,5.38
2022-12-01T16:57:56.737Z,6.25
2022-12-01T17:00:26.708Z,5.72
2022-12-01T17:02:55.512Z,5.65
2022-12-01T17:05:25.491Z,5.55
2022-12-01T17:07:54.247Z,5.82
2022-12-01T17:10:23.254Z,6.07
2022-12-01T17:12:51.925Z,7.07
2022-12-01T17:15:20.550Z,6.20
2022-12-01T17:17:49.525Z,6.65
2022-12-01T17:20:18.237Z,6.20
2022-12-01T17:22:48.322Z,6.93
2022-12-01T17:25:17.230Z,6.97
2022-12-01T17:27:45.833Z,5.95
2022-12-01T17:30:14.984Z,6.50
2022-12-01T17:32:43.576Z,6.30
2022-12-01T17:35:12.156Z,5.28
2022-12-01T17:37:40.847Z,5.97
2022-12-01T17:40:13.834Z,6.75
2022-12-01T17:42:48.555Z,6.30
2022-12-01T17:45:19.330Z,6.50
2022-12-01T17:47:48.316Z,6.20
2022-12-01T17:50:16.986Z,5.32
2022-12-01T17:52:45.798Z,5.78
2022-12-01T17:55:16.289Z,5.75
2022-12-01T17:57:44.896Z,5.28
2022-12-01T18:00:14.338Z,4.85
2022-12-01T18:02:42.991Z,5.05
2022-12-01T18:05:11.679Z,5.22
2022-12-01T18:07:40.439Z,5.38
2022-12-01T18:10:09.251Z,5.43
2022-12-01T18:12:39.217Z,5.38
2022-12-01T18:15:08.547Z,5.78
2022-12-01T18:17:37.234Z,5.50
2022-12-01T18:20:06.180Z,5.65
2022-12-01T18:22:34.856Z,5.47
2022-12-01T18:25:03.440Z,4.72
2022-12-01T18:27:32.071Z,5.22
2022-12-01T18:30:01.999Z,5.88
2022-12-01T18:32:30.577Z,5.43
2022-12-01T18:34:59.265Z,5.70
2022-12-01T18:37:27.871Z,5.22
2022-12-01T18:39:56.811Z,5.70
2022-12-01T18:42:25.627Z,5.38
2022-12-01T18:44:54.313Z,5.80
2022-12-01T18:47:24.323Z,5.35
2022-12-01T18:49:52.887Z,5.75
2022-12-01T18:52:21.488Z,5.68
2022-12-01T18:54:50.399Z,6.68
2022-12-01T18:57:19.740Z,6.80
2022-12-01T18:59:48.434Z,6.72
2022-12-01T19:02:17.052Z,7.15
2022-12-01T19:04:50.042Z,6.25
2022-12-01T19:07:19.471Z,6.22
2022-12-01T19:09:48.634Z,5.35
2022-12-01T19:12:17.618Z,5.80
2022-12-01T19:14:46.260Z,5.18
2022-12-01T19:17:14.876Z,5.13
2022-12-01T19:19:43.956Z,6.78
2022-12-01T19:22:13.929Z,11.27
2022-12-01T19:24:47.129Z,9.65
2022-12-01T19:27:18.663Z,6.88
2022-12-01T19:29:47.590Z,6.38
2022-12-01T19:32:16.575Z,5.50
2022-12-01T19:34:45.579Z,6.45
2022-12-01T19:37:15.547Z,7.75
2022-12-01T19:39:45.272Z,6.20
2022-12-01T19:42:13.852Z,6.72
2022-12-01T19:44:42.469Z,6.28
2022-12-01T19:47:11.037Z,5.97
2022-12-01T19:49:39.653Z,5.65
2022-12-01T19:52:08.208Z,5.80
2022-12-01T19:54:38.180Z,5.95
2022-12-01T19:57:06.856Z,5.95
2022-12-01T19:59:35.536Z,5.68
2022-12-01T20:02:04.193Z,5.28
2022-12-01T20:04:33.024Z,5.72
2022-12-01T20:07:01.676Z,5.55
2022-12-01T20:09:30.253Z,5.82
2022-12-01T20:12:00.300Z,5.70
2022-12-01T20:14:28.981Z,5.38
2022-12-01T20:16:57.681Z,5.80
2022-12-01T20:19:26.426Z,5.50
2022-12-01T20:21:55.082Z,5.93
2022-12-01T20:24:25.114Z,5.78
2022-12-01T20:26:56.641Z,6.03
2022-12-01T20:29:28.897Z,4.78
2022-12-01T20:31:58.623Z,5.47
2022-12-01T20:34:28.238Z,5.22
2022-12-01T20:36:57.603Z,4.78
2022-12-01T20:39:27.086Z,4.82
2022-12-01T20:41:55.699Z,5.50
2022-12-01T20:44:24.340Z,5.03
2022-12-01T20:46:54.595Z,5.50
2022-12-01T20:49:23.174Z,5.85
2022-12-01T20:51:51.996Z,5.60
2022-12-01T20:54:29.780Z,5.10
2022-12-01T20:56:58.968Z,5.53
2022-12-01T20:59:27.616Z,5.53
2022-12-01T21:01:57.985Z,5.38
2022-12-01T21:04:26.591Z,6.25
2022-12-01T21:06:56.973Z,6.82
2022-12-01T21:09:25.652Z,8.63
2022-12-01T21:12:12.024Z,8.23
2022-12-01T21:14:43.336Z,6.45
2022-12-01T21:17:18.329Z,6.07
2022-12-01T21:19:49.351Z,5.60
2022-12-01T21:22:17.963Z,5.97
2022-12-01T21:24:49.241Z,5.68
2022-12-01T21:27:18.968Z,5.80
2022-12-01T21:29:48.379Z,6.22
2022-12-01T21:32:19.166Z,5.40
2022-12-01T21:34:49.429Z,5.38
2022-12-01T21:37:22.158Z,5.18
2022-12-01T21:39:51.337Z,5.93
2022-12-01T21:42:20.621Z,5.68
2022-12-01T21:44:49.914Z,5.43
2022-12-01T21:47:21.675Z,5.32
2022-12-01T21:49:52.040Z,6.13
2022-12-01T21:52:21.905Z,5.03
2022-12-01T21:54:51.293Z,5.30
2022-12-01T21:57:29.395Z,5.95
2022-12-01T22:00:00.210Z,6.25
2022-12-01T22:02:38.511Z,6.03
2022-12-01T22:05:18.321Z,5.35
2022-12-01T22:07:47.039Z,5.88
2022-12-01T22:10:30.611Z,6.65
2022-12-01T22:12:59.216Z,6.43
2022-12-01T22:15:34.095Z,5.38
2022-12-01T22:18:05.406Z,6.13
2022-12-01T22:20:34.092Z,5.80
2022-12-01T22:23:02.816Z,5.60
2022-12-01T22:25:31.426Z,5.95
2022-12-01T22:28:00.247Z,6.40
2022-12-01T22:30:28.872Z,5.68
2022-12-01T22:32:58.369Z,5.78
2022-12-01T22:35:33.202Z,5.80
2022-12-01T22:38:11.258Z,5.45
2022-12-01T22:40:41.088Z,5.85
2022-12-01T22:43:21.051Z,5.90
2022-12-01T22:45:50.737Z,5.70
2022-12-01T22:48:23.671Z,5.25
2022-12-01T22:50:53.668Z,5.38
2022-12-01T22:53:25.268Z,5.50
2022-12-01T22:55:56.774Z,5.60
2022-12-01T22:58:26.471Z,4.95
2022-12-01T23:00:57.716Z,4.85
2022-12-01T23:03:26.760Z,5.18
2022-12-01T23:05:59.879Z,5.22
2022-12-01T23:08:28.505Z,4.50
2022-12-01T23:10:57.115Z,5.07
2022-12-01T23:13:26.512Z,4.40
2022-12-01T23:15:55.353Z,4.82
2022-12-01T23:18:24.614Z,4.90
2022-12-01T23:20:53.971Z,4.95
2022-12-01T23:23:27.343Z,5.18
2022-12-01T23:25:56.090Z,4.53
2022-12-01T23:28:24.911Z,4.60
2022-12-01T23:30:56.186Z,4.70
2022-12-01T23:33:25.562Z,4.88
2022-12-01T23:35:55.760Z,4.88
2022-12-01T23:38:26.927Z,4.60
2022-12-01T23:40:58.110Z,4.55
2022-12-01T23:43:29.163Z,4.80
2022-12-01T23:46:03.106Z,5.38
2022-12-01T23:48:34.752Z,5.63
2022-12-01T23:51:03.395Z,5.68
2022-12-01T23:53:34.682Z,5.15
2022-12-01T23:56:05.596Z,5.90
2022-12-01T23:58:34.210Z,5.32
